createdAt,value
2022-08-22T00:02:09.044Z,20.30
2022-08-22T00:02:56.786Z,23.30
2022-08-22T00:05:10.646Z,20.30
2022-08-22T00:08:12.305Z,20.30
2022-08-22T00:10:59.955Z,20.20
2022-08-22T00:14:01.264Z,20.20
2022-08-22T00:16:57.208Z,20.30
2022-08-22T00:19:50.057Z,20.20
2022-08-22T00:22:40.450Z,20.20
2022-08-22T00:25:25.673Z,20.10
2022-08-22T00:28:09.014Z,20.00
2022-08-22T00:31:01.111Z,20.00
2022-08-22T00:33:46.638Z,20.00
2022-08-22T00:36:30.717Z,19.90
2022-08-22T00:39:16.892Z,19.90
2022-08-22T00:42:34.122Z,19.90
2022-08-22T00:45:12.884Z,19.90
2022-08-22T00:47:51.217Z,19.90
2022-08-22T00:50:40.246Z,19.90
2022-08-22T00:53:54.463Z,19.90
2022-08-22T00:56:42.349Z,19.90
2022-08-22T00:59:55.310Z,19.80
2022-08-22T01:02:37.319Z,19.80
2022-08-22T01:05:30.141Z,19.80
2022-08-22T01:08:19.180Z,19.80
2022-08-22T01:11:11.391Z,19.70
2022-08-22T01:13:56.248Z,19.70
2022-08-22T01:16:42.770Z,19.60
2022-08-22T01:19:43.208Z,19.60
2022-08-22T01:22:43.999Z,19.60
2022-08-22T01:26:00.628Z,19.50
2022-08-22T01:29:11.520Z,19.60
2022-08-22T01:32:03.041Z,19.50
2022-08-22T01:34:53.634Z,19.50
2022-08-22T01:37:29.098Z,19.50
2022-08-22T01:40:20.876Z,19.50
2022-08-22T01:43:18.964Z,19.50
2022-08-22T01:46:01.437Z,19.40
2022-08-22T01:48:49.547Z,19.40
2022-08-22T01:51:22.229Z,19.40
2022-08-22T01:54:11.042Z,19.40
2022-08-22T01:56:45.625Z,19.40
2022-08-22T01:59:34.113Z,19.40
2022-08-22T02:02:26.146Z,19.20
2022-08-22T02:05:18.292Z,19.20
2022-08-22T02:08:00.967Z,19.10
2022-08-22T02:11:00.601Z,19.20
2022-08-22T02:14:03.344Z,19.10
2022-08-22T02:16:40.455Z,19.10
2022-08-22T02:19:31.001Z,19.10
2022-08-22T02:22:30.523Z,19.10
2022-08-22T02:25:19.522Z,19.00
2022-08-22T02:28:05.749Z,19.00
2022-08-22T02:31:00.729Z,19.00
2022-08-22T02:33:54.019Z,18.90
2022-08-22T02:36:33.077Z,18.90
2022-08-22T02:39:22.256Z,18.90
2022-08-22T02:42:26.500Z,18.80
2022-08-22T02:45:38.486Z,18.80
2022-08-22T02:48:39.511Z,18.80
2022-08-22T02:51:20.760Z,18.70
2022-08-22T02:54:03.626Z,18.70
2022-08-22T02:56:52.563Z,18.60
2022-08-22T03:00:05.997Z,18.60
2022-08-22T03:03:14.269Z,18.60
2022-08-22T03:05:50.804Z,18.60
2022-08-22T03:08:31.921Z,18.60
2022-08-22T03:11:27.549Z,18.60
2022-08-22T03:14:16.368Z,18.60
2022-08-22T03:17:02.251Z,18.50
2022-08-22T03:20:01.387Z,18.50
2022-08-22T03:23:02.333Z,18.50
2022-08-22T03:25:49.004Z,18.50
2022-08-22T03:28:32.021Z,18.40
2022-08-22T03:31:16.207Z,18.40
2022-08-22T03:34:14.021Z,18.50
2022-08-22T03:37:18.302Z,18.40
2022-08-22T03:39:51.219Z,18.30
2022-08-22T03:42:26.861Z,18.20
2022-08-22T03:44:59.633Z,18.20
2022-08-22T03:48:05.219Z,18.10
2022-08-22T03:51:13.409Z,18.10
2022-08-22T03:53:46.262Z,18.10
2022-08-22T03:56:44.892Z,18.10
2022-08-22T03:59:42.537Z,18.00
2022-08-22T04:02:43.424Z,18.00
2022-08-22T04:05:26.345Z,17.90
2022-08-22T04:08:41.961Z,17.90
2022-08-22T04:11:39.367Z,17.90
2022-08-22T04:14:40.580Z,17.90
2022-08-22T04:17:53.367Z,17.90
2022-08-22T04:20:57.344Z,17.80
2022-08-22T04:23:55.994Z,17.80
2022-08-22T04:26:47.285Z,17.70
2022-08-22T04:30:05.259Z,17.70
2022-08-22T04:32:49.259Z,17.60
2022-08-22T04:35:32.741Z,17.60
2022-08-22T04:38:27.048Z,17.60
2022-08-22T04:41:43.087Z,17.70
2022-08-22T04:44:23.841Z,17.70
2022-08-22T04:47:03.615Z,17.70
2022-08-22T04:49:41.486Z,17.70
2022-08-22T04:52:29.607Z,17.60
2022-08-22T04:55:08.562Z,17.60
2022-08-22T04:58:00.114Z,17.60
2022-08-22T05:00:58.975Z,17.60
2022-08-22T05:03:36.862Z,17.60
2022-08-22T05:06:11.877Z,17.60
2022-08-22T05:08:49.849Z,17.50
2022-08-22T05:11:29.336Z,17.50
2022-08-22T05:14:07.279Z,17.50
2022-08-22T05:16:43.631Z,17.50
2022-08-22T05:19:32.310Z,17.50
2022-08-22T05:22:09.638Z,17.50
2022-08-22T05:25:01.929Z,17.50
2022-08-22T05:27:57.540Z,17.50
2022-08-22T05:30:35.626Z,17.60
2022-08-22T05:33:27.287Z,17.60
2022-08-22T05:36:16.030Z,17.70
2022-08-22T05:38:54.440Z,17.70
2022-08-22T05:41:52.898Z,17.80
2022-08-22T05:44:38.114Z,17.80
2022-08-22T05:48:34.650Z,17.80
2022-08-22T05:52:37.067Z,17.90
2022-08-22T05:55:37.958Z,18.00
2022-08-22T05:58:35.112Z,18.10
2022-08-22T06:01:41.509Z,18.20
2022-08-22T06:05:15.587Z,18.30
2022-08-22T06:08:48.350Z,18.40
2022-08-22T06:11:38.472Z,18.60
2022-08-22T06:15:00.617Z,18.70
2022-08-22T06:17:49.438Z,18.90
2022-08-22T06:20:49.090Z,19.20
2022-08-22T06:23:29.392Z,19.40
2022-08-22T06:26:04.142Z,19.70
2022-08-22T06:28:55.293Z,19.90
2022-08-22T06:31:36.588Z,20.20
2022-08-22T06:34:15.425Z,20.50
2022-08-22T06:36:50.854Z,20.80
2022-08-22T06:39:30.206Z,21.10
2022-08-22T06:42:16.531Z,21.30
2022-08-22T06:45:16.229Z,21.60
2022-08-22T06:48:00.945Z,21.80
2022-08-22T06:50:41.404Z,22.10
2022-08-22T06:53:23.377Z,22.40
2022-08-22T06:56:02.755Z,22.60
2022-08-22T06:58:45.368Z,22.70
2022-08-22T07:01:24.465Z,23.00
2022-08-22T07:04:11.252Z,23.20
2022-08-22T07:06:53.867Z,23.50
2022-08-22T07:09:38.150Z,23.70
2022-08-22T07:12:18.935Z,23.70
2022-08-22T07:14:54.336Z,23.80
2022-08-22T07:17:30.849Z,23.80
2022-08-22T07:20:29.313Z,23.80
2022-08-22T07:23:12.494Z,23.90
2022-08-22T07:26:25.118Z,24.00
2022-08-22T07:29:28.374Z,24.10
2022-08-22T07:32:10.134Z,24.20
2022-08-22T07:35:53.357Z,24.50
2022-08-22T07:39:15.335Z,24.70
2022-08-22T07:42:13.965Z,24.90
2022-08-22T07:44:53.857Z,25.10
2022-08-22T07:47:50.226Z,25.20
2022-08-22T07:50:31.007Z,25.40
2022-08-22T07:53:28.339Z,25.60
2022-08-22T07:56:04.221Z,25.80
2022-08-22T07:58:44.296Z,26.00
2022-08-22T08:01:28.601Z,26.20
2022-08-22T08:04:23.266Z,26.20
2022-08-22T08:06:59.544Z,26.20
2022-08-22T08:09:36.749Z,26.30
2022-08-22T08:12:57.962Z,26.20
2022-08-22T08:15:43.254Z,26.10
2022-08-22T08:18:22.003Z,26.10
2022-08-22T08:20:59.937Z,26.00
2022-08-22T08:23:39.694Z,25.90
2022-08-22T08:26:23.042Z,25.80
2022-08-22T08:28:59.399Z,25.70
2022-08-22T08:31:44.731Z,25.60
2022-08-22T08:35:31.419Z,25.60
2022-08-22T08:38:49.626Z,25.70
2022-08-22T08:41:55.400Z,26.00
2022-08-22T08:44:37.818Z,26.10
2022-08-22T08:47:24.501Z,26.20
2022-08-22T08:50:20.600Z,26.30
2022-08-22T08:53:18.678Z,26.40
2022-08-22T08:56:19.505Z,26.50
2022-08-22T08:59:30.193Z,26.60
2022-08-22T09:02:20.531Z,26.70
2022-08-22T09:05:24.553Z,26.70
2022-08-22T09:08:03.236Z,26.70
2022-08-22T09:11:12.067Z,26.70
2022-08-22T09:13:55.224Z,26.90
2022-08-22T09:19:40.755Z,27.30
2022-08-22T09:22:50.755Z,27.50
2022-08-22T09:25:51.981Z,27.70
2022-08-22T09:28:51.727Z,27.80
2022-08-22T09:31:47.715Z,27.90
2022-08-22T09:34:29.186Z,28.10
2022-08-22T09:37:14.187Z,28.20
2022-08-22T09:40:01.321Z,28.30
2022-08-22T09:42:55.292Z,28.40
2022-08-22T09:45:57.802Z,28.40
2022-08-22T09:48:50.177Z,28.30
2022-08-22T09:51:41.519Z,28.40
2022-08-22T09:54:31.698Z,28.60
2022-08-22T09:57:26.714Z,28.70
2022-08-22T10:00:02.130Z,28.90
2022-08-22T10:03:05.461Z,28.90
2022-08-22T10:05:50.327Z,28.90
2022-08-22T10:08:45.887Z,29.00
2022-08-22T10:11:45.370Z,29.00
2022-08-22T10:14:34.162Z,29.00
2022-08-22T10:17:41.394Z,28.90
2022-08-22T10:20:35.244Z,29.10
2022-08-22T10:23:14.133Z,29.30
2022-08-22T10:29:04.882Z,29.60
2022-08-22T10:31:59.249Z,29.80
2022-08-22T10:34:48.526Z,29.80
2022-08-22T10:37:30.548Z,29.60
2022-08-22T10:40:15.358Z,29.40
2022-08-22T10:43:11.038Z,29.40
2022-08-22T10:45:47.332Z,29.50
2022-08-22T10:48:47.541Z,29.60
2022-08-22T10:51:49.113Z,29.70
2022-08-22T10:54:38.104Z,29.80
2022-08-22T10:57:53.657Z,29.50
2022-08-22T11:00:50.758Z,29.60
2022-08-22T11:04:12.230Z,29.90
2022-08-22T11:06:57.155Z,30.00
2022-08-22T11:09:37.720Z,30.10
2022-08-22T11:12:34.924Z,30.30
2022-08-22T11:15:48.373Z,30.50
2022-08-22T11:18:44.981Z,30.70
2022-08-22T11:23:06.475Z,30.90
2022-08-22T11:26:15.711Z,31.30
2022-08-22T11:29:22.034Z,31.40
2022-08-22T11:32:22.934Z,31.30
2022-08-22T11:41:12.559Z,31.40
2022-08-22T11:43:53.262Z,31.10
2022-08-22T11:46:45.816Z,30.70
2022-08-22T11:49:41.706Z,30.30
2022-08-22T11:52:24.864Z,30.20
2022-08-22T11:55:17.002Z,30.40
2022-08-22T11:58:17.795Z,30.60
2022-08-22T12:01:11.756Z,31.00
2022-08-22T12:04:09.936Z,31.40
2022-08-22T12:07:01.296Z,31.50
2022-08-22T12:10:27.054Z,31.30
2022-08-22T12:13:20.696Z,31.50
2022-08-22T12:16:27.427Z,31.70
2022-08-22T12:19:08.783Z,31.80
2022-08-22T12:22:31.830Z,31.80
2022-08-22T12:25:36.884Z,31.60
2022-08-22T12:28:59.954Z,31.30
2022-08-22T12:32:10.578Z,30.80
2022-08-22T12:35:00.690Z,30.30
2022-08-22T12:37:59.630Z,30.30
2022-08-22T12:41:08.222Z,30.20
2022-08-22T12:43:49.527Z,30.10
2022-08-22T12:55:32.466Z,29.90
2022-08-22T13:04:50.586Z,29.60
2022-08-22T13:07:35.109Z,29.40
2022-08-22T13:10:17.566Z,29.30
2022-08-22T13:19:21.403Z,29.30
2022-08-22T13:22:08.305Z,29.30
2022-08-22T13:25:34.130Z,29.30
2022-08-22T13:28:18.822Z,29.20
2022-08-22T13:30:53.846Z,29.20
2022-08-22T13:33:34.201Z,29.00
2022-08-22T13:36:18.512Z,29.00
2022-08-22T13:39:00.454Z,29.00
2022-08-22T13:41:44.214Z,28.90
2022-08-22T13:44:36.942Z,28.90
2022-08-22T13:47:23.563Z,28.80
2022-08-22T13:50:14.600Z,28.70
2022-08-22T13:52:55.325Z,28.70
2022-08-22T13:55:49.045Z,28.70
2022-08-22T13:58:42.615Z,28.70
2022-08-22T14:02:01.839Z,28.70
2022-08-22T14:04:40.410Z,28.60
2022-08-22T14:07:24.208Z,28.60
2022-08-22T14:10:23.800Z,28.50
2022-08-22T14:12:56.520Z,28.60
2022-08-22T14:15:44.824Z,28.60
2022-08-22T14:18:35.861Z,28.50
2022-08-22T14:21:33.409Z,28.40
2022-08-22T14:24:26.935Z,28.50
2022-08-22T14:27:24.832Z,28.50
2022-08-22T14:30:11.815Z,28.50
2022-08-22T14:32:53.446Z,28.50
2022-08-22T14:35:43.540Z,28.50
2022-08-22T14:38:35.484Z,28.40
2022-08-22T14:41:55.612Z,28.40
2022-08-22T14:44:30.915Z,28.40
2022-08-22T14:47:08.399Z,28.40
2022-08-22T14:50:09.476Z,28.30
2022-08-22T14:52:48.411Z,28.30
2022-08-22T14:55:24.067Z,28.30
2022-08-22T14:58:14.386Z,28.30
2022-08-22T15:01:15.289Z,28.10
2022-08-22T15:04:09.733Z,28.10
2022-08-22T15:07:02.299Z,28.10
2022-08-22T15:09:41.763Z,28.20
2022-08-22T15:13:11.561Z,28.20
2022-08-22T15:15:52.774Z,28.20
2022-08-22T15:19:10.200Z,28.20
2022-08-22T15:21:43.115Z,28.20
2022-08-22T15:24:16.534Z,28.20
2022-08-22T15:26:55.494Z,28.20
2022-08-22T15:30:18.764Z,28.20
2022-08-22T15:33:36.237Z,28.20
2022-08-22T15:36:18.655Z,28.10
2022-08-22T15:38:54.261Z,28.10
2022-08-22T15:41:43.504Z,28.00
2022-08-22T15:45:07.666Z,27.90
2022-08-22T15:47:46.618Z,27.90
2022-08-22T15:50:54.534Z,27.80
2022-08-22T15:57:35.535Z,27.60
2022-08-22T16:00:32.465Z,27.60
2022-08-22T16:03:27.465Z,27.50
2022-08-22T16:06:07.414Z,27.50
2022-08-22T16:08:50.680Z,27.40
2022-08-22T16:11:34.129Z,27.30
2022-08-22T16:14:23.965Z,27.30
2022-08-22T16:17:01.756Z,27.20
2022-08-22T16:19:36.324Z,27.20
2022-08-22T16:22:10.806Z,27.20
2022-08-22T16:25:00.209Z,27.10
2022-08-22T16:27:34.196Z,27.10
2022-08-22T16:30:11.928Z,27.00
2022-08-22T16:32:53.429Z,26.90
2022-08-22T16:36:07.961Z,26.90
2022-08-22T16:38:45.617Z,26.80
2022-08-22T16:41:34.630Z,26.80
2022-08-22T16:44:39.890Z,26.70
2022-08-22T16:47:17.566Z,26.60
2022-08-22T16:49:50.311Z,26.50
2022-08-22T16:53:05.241Z,26.40
2022-08-22T16:55:39.690Z,26.40
2022-08-22T16:59:03.376Z,26.40
2022-08-22T17:01:56.127Z,26.40
2022-08-22T17:04:55.512Z,26.30
2022-08-22T17:08:08.315Z,26.40
2022-08-22T17:11:48.601Z,26.30
2022-08-22T17:14:35.108Z,26.20
2022-08-22T17:17:10.707Z,26.20
2022-08-22T17:19:43.504Z,26.20
2022-08-22T17:26:16.729Z,26.10
2022-08-22T17:29:12.645Z,26.10
2022-08-22T17:31:45.403Z,26.10
2022-08-22T17:34:39.034Z,26.10
2022-08-22T17:37:36.122Z,26.10
2022-08-22T17:40:19.694Z,26.10
2022-08-22T17:43:07.517Z,26.00
2022-08-22T17:45:48.787Z,26.00
2022-08-22T17:48:28.752Z,26.00
2022-08-22T17:51:29.407Z,25.90
2022-08-22T17:54:20.077Z,25.80
2022-08-22T17:57:13.371Z,25.80
2022-08-22T17:59:56.419Z,25.70
2022-08-22T18:02:39.123Z,25.60
2022-08-22T18:05:25.463Z,25.60
2022-08-22T18:08:36.965Z,25.50
2022-08-22T18:11:24.439Z,25.40
2022-08-22T18:14:21.146Z,25.20
2022-08-22T18:16:57.055Z,25.20
2022-08-22T18:19:54.414Z,25.10
2022-08-22T18:22:46.251Z,25.10
2022-08-22T18:25:18.963Z,25.00
2022-08-22T18:27:57.512Z,24.90
2022-08-22T18:30:54.290Z,24.80
2022-08-22T18:33:42.535Z,24.80
2022-08-22T18:36:31.092Z,24.70
2022-08-22T18:39:13.717Z,24.60
2022-08-22T18:42:11.176Z,24.50
2022-08-22T18:44:44.917Z,24.50
2022-08-22T18:47:31.853Z,24.40
2022-08-22T18:50:26.626Z,24.40
2022-08-22T18:52:59.939Z,24.30
2022-08-22T18:55:54.835Z,24.30
2022-08-22T18:59:05.356Z,24.30
2022-08-22T19:01:51.936Z,24.20
2022-08-22T19:04:33.792Z,24.20
2022-08-22T19:07:24.715Z,24.20
2022-08-22T19:10:18.427Z,24.10
2022-08-22T19:17:25.291Z,23.90
2022-08-22T19:20:25.440Z,23.80
2022-08-22T19:23:40.577Z,23.70
2022-08-22T19:26:41.618Z,23.70
2022-08-22T19:29:15.863Z,23.60
2022-08-22T19:31:56.224Z,23.60
2022-08-22T19:34:30.419Z,23.60
2022-08-22T19:37:33.017Z,23.50
2022-08-22T19:40:35.938Z,23.50
2022-08-22T19:43:30.430Z,23.40
2022-08-22T19:46:10.819Z,23.40
2022-08-22T19:48:52.576Z,23.40
2022-08-22T19:56:14.564Z,23.30
2022-08-22T19:59:15.372Z,23.30
2022-08-22T20:02:16.259Z,23.20
2022-08-22T20:05:12.240Z,23.20
2022-08-22T20:08:10.978Z,23.10
2022-08-22T20:11:00.466Z,23.10
2022-08-22T20:17:13.799Z,23.00
2022-08-22T20:24:05.184Z,22.90
2022-08-22T20:26:52.181Z,22.80
2022-08-22T20:29:41.868Z,22.70
2022-08-22T20:32:17.935Z,22.70
2022-08-22T20:35:01.495Z,22.70
2022-08-22T20:38:05.255Z,22.70
2022-08-22T20:40:56.168Z,22.60
2022-08-22T20:43:47.583Z,22.60
2022-08-22T20:46:32.645Z,22.50
2022-08-22T20:49:07.755Z,22.50
2022-08-22T20:52:07.236Z,22.40
2022-08-22T20:55:05.790Z,22.40
2022-08-22T20:57:54.591Z,22.40
2022-08-22T21:00:35.363Z,22.30
2022-08-22T21:03:15.014Z,22.30
2022-08-22T21:06:21.309Z,22.20
2022-08-22T21:13:36.581Z,22.10
2022-08-22T21:16:18.538Z,22.10
2022-08-22T21:18:53.576Z,22.00
2022-08-22T21:21:52.020Z,22.00
2022-08-22T21:24:24.935Z,22.00
2022-08-22T21:27:02.136Z,21.90
2022-08-22T21:30:00.285Z,21.90
2022-08-22T21:32:37.942Z,21.80
2022-08-22T21:35:29.598Z,21.80
2022-08-22T21:38:02.809Z,21.70
2022-08-22T21:40:37.758Z,21.70
2022-08-22T21:43:13.436Z,21.60
2022-08-22T21:45:46.809Z,21.60
2022-08-22T21:48:45.892Z,21.50
2022-08-22T21:51:36.761Z,21.50
2022-08-22T21:54:28.346Z,21.40
2022-08-22T21:57:35.385Z,21.40
2022-08-22T22:00:48.785Z,21.40
2022-08-22T22:03:47.922Z,21.30
2022-08-22T22:06:20.833Z,21.30
2022-08-22T22:08:53.662Z,21.30
2022-08-22T22:11:26.461Z,21.20
2022-08-22T22:13:59.182Z,21.10
2022-08-22T22:16:33.856Z,21.00
2022-08-22T22:20:00.022Z,21.00
2022-08-22T22:22:32.800Z,21.00
2022-08-22T22:25:40.381Z,21.00
2022-08-22T22:28:47.193Z,21.00
2022-08-22T22:31:20.017Z,21.00
2022-08-22T22:33:52.805Z,20.90
2022-08-22T22:36:27.309Z,20.90
2022-08-22T22:39:00.409Z,20.80
2022-08-22T22:41:33.243Z,20.80
2022-08-22T22:44:06.169Z,20.80
2022-08-22T22:46:39.032Z,20.80
2022-08-22T22:49:20.012Z,20.70
2022-08-22T22:53:11.207Z,20.70
2022-08-22T22:55:59.958Z,20.70
2022-08-22T22:58:45.586Z,20.60
2022-08-22T23:01:26.000Z,20.50
2022-08-22T23:04:03.261Z,20.50
2022-08-22T23:06:38.734Z,20.50
2022-08-22T23:09:18.029Z,20.40
2022-08-22T23:11:50.909Z,20.40
2022-08-22T23:14:23.719Z,20.40
2022-08-22T23:16:57.569Z,20.40
2022-08-22T23:19:31.083Z,20.40
2022-08-22T23:22:30.698Z,20.40
2022-08-22T23:25:04.452Z,20.30
2022-08-22T23:27:37.825Z,20.30
2022-08-22T23:30:11.622Z,20.30
2022-08-22T23:32:44.429Z,20.20
2022-08-22T23:35:17.304Z,20.10
2022-08-22T23:37:50.019Z,20.10
2022-08-22T23:40:22.822Z,20.00
2022-08-22T23:43:22.636Z,20.00
2022-08-22T23:45:55.369Z,20.00
2022-08-22T23:49:08.381Z,19.90
2022-08-22T23:52:02.135Z,19.80
2022-08-22T23:54:37.141Z,19.80
2022-08-22T23:57:14.317Z,19.70
2022-08-22T23:59:57.798Z,19.70
